createdAt,value
2022-11-27T00:01:42.176Z,20.10
2022-11-27T00:04:12.051Z,19.70
2022-11-27T00:06:41.877Z,18.30
2022-11-27T00:09:15.108Z,18.10
2022-11-27T00:11:45.317Z,20.40
2022-11-27T00:14:18.156Z,19.00
2022-11-27T00:16:46.940Z,19.00
2022-11-27T00:19:15.673Z,17.30
2022-11-27T00:21:44.155Z,17.50
2022-11-27T00:24:12.798Z,18.40
2022-11-27T00:26:41.309Z,18.80
2022-11-27T00:29:10.170Z,18.60
2022-11-27T00:31:38.931Z,17.20
2022-11-27T00:34:10.422Z,19.20
2022-11-27T00:36:39.808Z,17.90
2022-11-27T00:39:11.065Z,19.60
2022-11-27T00:41:40.486Z,19.20
2022-11-27T00:44:09.065Z,19.70
2022-11-27T00:46:37.813Z,20.20
2022-11-27T00:49:07.766Z,20.80
2022-11-27T00:51:36.350Z,20.80
2022-11-27T00:54:06.300Z,21.80
2022-11-27T00:56:37.559Z,22.80
2022-11-27T00:59:07.221Z,20.50
2022-11-27T01:01:37.579Z,21.40
2022-11-27T01:04:09.141Z,21.40
2022-11-27T01:06:37.788Z,22.00
2022-11-27T01:09:07.374Z,21.90
2022-11-27T01:11:36.522Z,21.10
2022-11-27T01:14:07.835Z,20.10
2022-11-27T01:16:43.071Z,21.70
2022-11-27T01:19:14.542Z,20.60
2022-11-27T01:21:43.663Z,20.90
2022-11-27T01:24:14.395Z,21.50
2022-11-27T01:26:46.581Z,20.90
2022-11-27T01:29:18.535Z,21.00
2022-11-27T01:31:47.376Z,20.10
2022-11-27T01:34:18.109Z,20.30
2022-11-27T01:36:50.350Z,20.50
2022-11-27T01:39:23.579Z,20.40
2022-11-27T01:41:54.985Z,21.60
2022-11-27T01:44:49.210Z,19.90
2022-11-27T01:47:27.647Z,19.50
2022-11-27T01:50:03.988Z,20.00
2022-11-27T01:52:36.975Z,21.60
2022-11-27T01:55:23.529Z,20.90
2022-11-27T01:57:58.122Z,21.40
2022-11-27T02:00:27.406Z,21.00
2022-11-27T02:02:57.044Z,21.60
2022-11-27T02:05:28.024Z,21.80
2022-11-27T02:07:58.487Z,20.40
2022-11-27T02:10:44.515Z,20.30
2022-11-27T02:13:19.599Z,20.10
2022-11-27T02:15:55.623Z,20.20
2022-11-27T02:18:31.949Z,20.40
2022-11-27T02:21:06.399Z,20.60
2022-11-27T02:23:55.955Z,20.20
2022-11-27T02:26:48.813Z,22.40
2022-11-27T02:29:22.719Z,20.10
2022-11-27T02:32:02.087Z,20.10
2022-11-27T02:34:37.459Z,21.00
2022-11-27T02:37:12.785Z,19.60
2022-11-27T02:39:48.590Z,19.60
2022-11-27T02:42:23.949Z,20.50
2022-11-27T02:44:56.885Z,20.70
2022-11-27T02:47:28.066Z,22.70
2022-11-27T02:49:57.494Z,19.80
2022-11-27T02:52:28.988Z,22.10
2022-11-27T02:55:03.270Z,20.50
2022-11-27T02:57:33.594Z,21.60
2022-11-27T03:00:04.071Z,21.80
2022-11-27T03:02:36.952Z,22.80
2022-11-27T03:05:13.076Z,22.30
2022-11-27T03:07:45.658Z,22.60
2022-11-27T03:10:20.593Z,21.10
2022-11-27T03:12:51.005Z,20.90
2022-11-27T03:15:21.127Z,20.90
2022-11-27T03:17:59.638Z,22.20
2022-11-27T03:20:35.514Z,20.30
2022-11-27T03:23:03.850Z,21.60
2022-11-27T03:25:33.051Z,22.30
2022-11-27T03:28:04.679Z,21.30
2022-11-27T03:30:34.746Z,21.00
2022-11-27T03:33:03.967Z,20.60
2022-11-27T03:35:35.245Z,21.40
2022-11-27T03:38:03.999Z,22.10
2022-11-27T03:40:44.934Z,22.10
2022-11-27T03:43:18.908Z,20.80
2022-11-27T03:45:58.186Z,21.70
2022-11-27T03:48:38.052Z,22.00
2022-11-27T03:51:12.385Z,21.30
2022-11-27T03:53:56.928Z,21.40
2022-11-27T03:56:35.468Z,21.30
2022-11-27T04:01:40.352Z,20.50
2022-11-27T04:04:09.203Z,20.60
2022-11-27T04:06:38.254Z,21.60
2022-11-27T04:09:07.052Z,21.50
2022-11-27T04:11:41.140Z,22.10
2022-11-27T04:14:10.419Z,21.00
2022-11-27T04:16:41.482Z,20.20
2022-11-27T04:19:10.193Z,21.20
2022-11-27T04:21:38.632Z,20.40
2022-11-27T04:24:07.786Z,21.20
2022-11-27T04:26:36.982Z,20.60
2022-11-27T04:29:05.570Z,20.60
2022-11-27T04:31:34.540Z,21.00
2022-11-27T04:34:04.368Z,19.90
2022-11-27T04:36:39.177Z,19.40
2022-11-27T04:39:08.621Z,19.00
2022-11-27T04:41:37.239Z,20.90
2022-11-27T04:44:08.933Z,21.20
2022-11-27T04:46:37.708Z,20.50
2022-11-27T04:49:11.340Z,18.30
2022-11-27T04:51:39.874Z,19.60
2022-11-27T04:54:08.358Z,21.20
2022-11-27T04:56:37.047Z,19.00
2022-11-27T04:59:06.062Z,19.20
2022-11-27T05:01:37.506Z,18.50
2022-11-27T05:04:06.171Z,19.00
2022-11-27T05:06:35.034Z,18.40
2022-11-27T05:09:03.859Z,20.00
2022-11-27T05:11:34.325Z,18.10
2022-11-27T05:14:14.948Z,18.80
2022-11-27T05:16:44.095Z,18.60
2022-11-27T05:19:14.108Z,19.80
2022-11-27T05:21:43.876Z,19.40
2022-11-27T05:24:13.298Z,18.20
2022-11-27T05:26:43.020Z,19.60
2022-11-27T05:29:13.005Z,19.00
2022-11-27T05:31:41.835Z,18.80
2022-11-27T05:34:11.407Z,18.40
2022-11-27T05:36:40.790Z,18.90
2022-11-27T05:39:10.520Z,18.90
2022-11-27T05:41:41.110Z,19.00
2022-11-27T05:44:12.564Z,20.60
2022-11-27T05:46:44.078Z,20.30
2022-11-27T05:49:14.927Z,19.90
2022-11-27T05:51:50.618Z,19.60
2022-11-27T05:54:19.937Z,20.70
2022-11-27T05:56:48.629Z,18.80
2022-11-27T05:59:17.059Z,18.80
2022-11-27T06:01:48.825Z,19.70
2022-11-27T06:04:18.809Z,19.30
2022-11-27T06:06:47.570Z,19.50
2022-11-27T06:09:16.483Z,19.70
2022-11-27T06:11:45.304Z,20.70
2022-11-27T06:14:14.513Z,20.80
2022-11-27T06:16:43.425Z,20.90
2022-11-27T06:19:12.148Z,19.60
2022-11-27T06:21:40.822Z,20.90
2022-11-27T06:24:10.765Z,19.50
2022-11-27T06:26:39.714Z,19.80
2022-11-27T06:29:09.051Z,19.80
2022-11-27T06:31:37.487Z,17.70
2022-11-27T06:34:07.338Z,21.60
2022-11-27T06:36:37.761Z,20.40
2022-11-27T06:39:08.204Z,20.80
2022-11-27T06:41:36.816Z,20.80
2022-11-27T06:44:05.579Z,19.30
2022-11-27T06:46:37.108Z,20.70
2022-11-27T06:49:05.623Z,20.80
2022-11-27T06:51:35.700Z,19.90
2022-11-27T06:54:04.355Z,19.30
2022-11-27T06:56:34.016Z,21.70
2022-11-27T06:59:02.802Z,19.60
2022-11-27T07:01:34.062Z,22.30
2022-11-27T07:04:02.718Z,21.60
2022-11-27T07:06:31.212Z,20.70
2022-11-27T07:08:59.671Z,20.50
2022-11-27T07:11:29.494Z,19.20
2022-11-27T07:13:59.648Z,20.30
2022-11-27T07:16:30.125Z,19.20
2022-11-27T07:19:02.560Z,20.00
2022-11-27T07:21:32.960Z,19.00
2022-11-27T07:24:01.743Z,19.70
2022-11-27T07:26:30.669Z,21.30
2022-11-27T07:28:59.307Z,21.10
2022-11-27T07:31:30.490Z,21.50
2022-11-27T07:33:59.455Z,21.10
2022-11-27T07:36:34.761Z,21.10
2022-11-27T07:39:04.131Z,22.00
2022-11-27T07:41:34.560Z,21.80
2022-11-27T07:44:04.356Z,20.50
2022-11-27T07:46:36.353Z,22.40
2022-11-27T07:49:05.191Z,22.10
2022-11-27T07:51:36.471Z,21.90
2022-11-27T07:54:05.746Z,21.20
2022-11-27T07:56:36.383Z,22.60
2022-11-27T07:59:04.872Z,21.50
2022-11-27T08:01:36.045Z,22.10
2022-11-27T08:04:04.895Z,20.90
2022-11-27T08:06:34.156Z,22.50
2022-11-27T08:09:02.522Z,20.70
2022-11-27T08:11:34.968Z,21.30
2022-11-27T08:14:05.710Z,20.20
2022-11-27T08:16:39.427Z,22.70
2022-11-27T08:19:09.499Z,22.00
2022-11-27T08:21:38.008Z,23.10
2022-11-27T08:24:07.697Z,23.00
2022-11-27T08:26:36.412Z,21.20
2022-11-27T08:29:06.095Z,20.80
2022-11-27T08:31:37.440Z,20.70
2022-11-27T08:34:05.968Z,21.90
2022-11-27T08:36:38.671Z,21.40
2022-11-27T08:39:07.293Z,20.70
2022-11-27T08:41:35.813Z,25.30
2022-11-27T08:44:09.343Z,24.60
2022-11-27T08:46:38.422Z,24.10
2022-11-27T08:49:06.770Z,25.90
2022-11-27T08:51:39.014Z,30.70
2022-11-27T08:54:07.519Z,29.40
2022-11-27T08:56:36.081Z,24.20
2022-11-27T08:59:04.683Z,24.10
2022-11-27T09:01:35.126Z,24.50
2022-11-27T09:04:03.981Z,24.40
2022-11-27T09:06:34.545Z,24.40
2022-11-27T09:09:05.795Z,24.40
2022-11-27T09:11:38.531Z,24.60
2022-11-27T09:14:08.269Z,24.40
2022-11-27T09:16:37.225Z,22.90
2022-11-27T09:19:05.711Z,23.80
2022-11-27T09:21:35.643Z,21.90
2022-11-27T09:24:04.777Z,46.10
2022-11-27T09:26:35.284Z,71.00
2022-11-27T09:29:04.027Z,53.60
2022-11-27T09:31:36.083Z,39.00
2022-11-27T09:34:05.083Z,42.50
2022-11-27T09:36:37.236Z,32.20
2022-11-27T09:39:05.690Z,22.30
2022-11-27T09:41:46.377Z,24.80
2022-11-27T09:44:26.291Z,26.50
2022-11-27T09:46:56.630Z,21.50
2022-11-27T09:49:30.987Z,23.50
2022-11-27T09:52:04.263Z,23.50
2022-11-27T09:54:38.731Z,21.40
2022-11-27T09:57:14.223Z,22.20
2022-11-27T09:59:50.052Z,29.10
2022-11-27T10:02:25.231Z,22.90
2022-11-27T10:08:06.035Z,25.50
2022-11-27T10:10:46.814Z,24.70
2022-11-27T10:13:26.432Z,22.30
2022-11-27T10:16:00.593Z,22.60
2022-11-27T10:18:37.472Z,25.00
2022-11-27T10:21:13.677Z,23.30
2022-11-27T10:23:51.040Z,24.20
2022-11-27T10:26:24.397Z,26.00
2022-11-27T10:29:01.267Z,25.60
2022-11-27T10:31:36.933Z,28.80
2022-11-27T10:34:23.764Z,27.90
2022-11-27T10:36:53.888Z,25.70
2022-11-27T10:39:30.035Z,24.20
2022-11-27T10:42:06.923Z,24.60
2022-11-27T10:44:41.492Z,24.10
2022-11-27T10:47:13.305Z,24.10
2022-11-27T10:49:44.198Z,25.00
2022-11-27T10:52:14.738Z,24.00
2022-11-27T10:54:45.997Z,24.00
2022-11-27T10:57:29.713Z,23.50
2022-11-27T11:00:10.355Z,23.80
2022-11-27T11:02:40.333Z,22.70
2022-11-27T11:05:37.295Z,22.60
2022-11-27T11:08:05.139Z,23.20
2022-11-27T11:10:36.679Z,24.60
2022-11-27T11:13:16.980Z,27.40
2022-11-27T11:15:54.509Z,24.10
2022-11-27T11:18:24.967Z,23.70
2022-11-27T11:20:57.062Z,36.20
2022-11-27T11:23:33.171Z,53.10
2022-11-27T11:26:05.556Z,51.80
2022-11-27T11:28:40.424Z,32.40
2022-11-27T11:31:14.794Z,23.80
2022-11-27T11:33:52.624Z,24.30
2022-11-27T11:36:22.213Z,23.00
2022-11-27T11:38:51.533Z,22.20
2022-11-27T11:41:20.420Z,26.70
2022-11-27T11:44:01.264Z,23.60
2022-11-27T11:46:34.591Z,23.70
2022-11-27T11:49:07.843Z,22.10
2022-11-27T11:52:21.549Z,22.20
2022-11-27T11:54:58.531Z,23.30
2022-11-27T11:57:51.896Z,23.90
2022-11-27T12:00:26.636Z,22.60
2022-11-27T12:05:47.508Z,21.50
2022-11-27T12:08:29.246Z,26.60
2022-11-27T12:11:08.720Z,26.10
2022-11-27T12:14:07.461Z,24.10
2022-11-27T12:16:48.659Z,23.70
2022-11-27T12:19:35.106Z,26.60
2022-11-27T12:22:17.063Z,22.20
2022-11-27T12:24:55.435Z,20.50
2022-11-27T12:30:10.008Z,24.50
2022-11-27T12:33:13.830Z,21.10
2022-11-27T12:35:52.312Z,20.20
2022-11-27T12:41:13.498Z,23.80
2022-11-27T12:43:46.511Z,24.70
2022-11-27T12:46:19.659Z,23.10
2022-11-27T12:48:53.240Z,22.80
2022-11-27T12:51:27.049Z,26.70
2022-11-27T12:53:59.809Z,28.00
2022-11-27T12:56:34.569Z,25.80
2022-11-27T12:59:10.510Z,20.90
2022-11-27T13:01:43.253Z,20.90
2022-11-27T13:04:21.398Z,22.10
2022-11-27T13:09:32.134Z,19.00
2022-11-27T13:12:02.776Z,32.80
2022-11-27T13:14:37.284Z,24.30
2022-11-27T13:17:11.138Z,20.80
2022-11-27T13:19:44.179Z,22.90
2022-11-27T13:22:19.061Z,20.40
2022-11-27T13:24:48.019Z,20.60
2022-11-27T13:27:19.692Z,19.40
2022-11-27T13:29:52.869Z,20.40
2022-11-27T13:32:24.649Z,20.00
2022-11-27T13:34:55.702Z,21.40
2022-11-27T13:37:31.101Z,20.30
2022-11-27T13:40:06.761Z,20.80
2022-11-27T13:42:42.839Z,21.10
2022-11-27T13:45:22.295Z,21.50
2022-11-27T13:47:52.087Z,20.10
2022-11-27T13:50:25.750Z,21.40
2022-11-27T13:53:00.068Z,21.40
2022-11-27T13:55:31.274Z,19.20
2022-11-27T13:58:02.079Z,20.40
2022-11-27T14:00:36.974Z,20.60
2022-11-27T14:03:09.880Z,21.40
2022-11-27T14:05:41.954Z,20.90
2022-11-27T14:08:23.228Z,21.80
2022-11-27T14:10:55.748Z,24.40
2022-11-27T14:13:42.457Z,21.30
2022-11-27T14:16:25.671Z,20.50
2022-11-27T14:18:57.324Z,20.10
2022-11-27T14:21:39.824Z,19.80
2022-11-27T14:24:25.183Z,20.00
2022-11-27T14:26:54.400Z,20.20
2022-11-27T14:29:24.995Z,20.20
2022-11-27T14:31:58.491Z,20.50
2022-11-27T14:34:28.841Z,20.50
2022-11-27T14:36:58.669Z,18.90
2022-11-27T14:39:30.464Z,21.00
2022-11-27T14:42:00.684Z,23.40
2022-11-27T14:44:29.877Z,24.10
2022-11-27T14:47:01.746Z,23.10
2022-11-27T14:49:31.743Z,25.80
2022-11-27T14:52:07.123Z,25.30
2022-11-27T14:54:39.035Z,28.10
2022-11-27T14:57:13.888Z,24.80
2022-11-27T14:59:46.615Z,22.90
2022-11-27T15:02:19.537Z,23.40
2022-11-27T15:04:49.923Z,24.90
2022-11-27T15:07:22.927Z,24.00
2022-11-27T15:09:54.980Z,22.40
2022-11-27T15:12:28.643Z,21.70
2022-11-27T15:15:00.229Z,21.00
2022-11-27T15:17:32.174Z,21.30
2022-11-27T15:20:13.027Z,19.20
2022-11-27T15:22:49.572Z,18.50
2022-11-27T15:25:40.085Z,18.70
2022-11-27T15:28:29.354Z,20.30
2022-11-27T15:30:58.291Z,19.20
2022-11-27T15:33:29.794Z,20.50
2022-11-27T15:36:15.337Z,23.60
2022-11-27T15:38:45.322Z,22.50
2022-11-27T15:41:23.061Z,23.10
2022-11-27T15:43:52.367Z,22.20
2022-11-27T15:46:25.440Z,20.40
2022-11-27T15:48:53.979Z,19.20
2022-11-27T15:51:22.406Z,20.50
2022-11-27T15:53:50.783Z,20.90
2022-11-27T15:56:20.205Z,19.30
2022-11-27T15:58:48.496Z,20.00
2022-11-27T16:01:17.247Z,21.60
2022-11-27T16:03:46.142Z,22.30
2022-11-27T16:06:14.843Z,22.90
2022-11-27T16:08:43.234Z,20.90
2022-11-27T16:11:13.680Z,22.00
2022-11-27T16:13:42.244Z,21.10
2022-11-27T16:16:11.294Z,21.60
2022-11-27T16:18:40.050Z,20.90
2022-11-27T16:21:11.327Z,22.00
2022-11-27T16:23:41.121Z,21.10
2022-11-27T16:26:11.900Z,23.80
2022-11-27T16:28:40.403Z,24.20
2022-11-27T16:31:11.322Z,22.50
2022-11-27T16:33:39.817Z,23.10
2022-11-27T16:36:10.973Z,23.60
2022-11-27T16:38:41.609Z,24.70
2022-11-27T16:41:12.376Z,22.70
2022-11-27T16:43:42.792Z,26.90
2022-11-27T16:46:14.306Z,23.90
2022-11-27T16:48:44.688Z,29.30
2022-11-27T16:51:16.412Z,32.20
2022-11-27T16:53:47.139Z,42.60
2022-11-27T16:56:18.641Z,30.60
2022-11-27T16:58:47.825Z,25.40
2022-11-27T17:01:19.949Z,24.00
2022-11-27T17:03:49.794Z,22.90
2022-11-27T17:06:22.163Z,24.30
2022-11-27T17:08:50.783Z,24.30
2022-11-27T17:11:21.507Z,23.90
2022-11-27T17:13:50.592Z,25.30
2022-11-27T17:16:21.014Z,24.10
2022-11-27T17:18:51.024Z,25.10
2022-11-27T17:21:23.711Z,25.30
2022-11-27T17:23:54.112Z,24.70
2022-11-27T17:26:24.130Z,26.00
2022-11-27T17:28:55.604Z,24.40
2022-11-27T17:31:26.283Z,26.70
2022-11-27T17:33:56.126Z,25.10
2022-11-27T17:36:26.246Z,25.20
2022-11-27T17:38:54.790Z,25.30
2022-11-27T17:41:23.758Z,26.40
2022-11-27T17:43:53.568Z,26.10
2022-11-27T17:46:25.532Z,25.90
2022-11-27T17:48:55.028Z,26.60
2022-11-27T17:51:24.518Z,25.80
2022-11-27T17:53:53.227Z,26.00
2022-11-27T17:56:21.795Z,25.20
2022-11-27T17:58:50.944Z,30.20
2022-11-27T18:01:23.319Z,32.60
2022-11-27T18:03:54.246Z,32.70
2022-11-27T18:06:23.210Z,28.00
2022-11-27T18:08:55.148Z,29.30
2022-11-27T18:11:25.889Z,29.40
2022-11-27T18:13:56.871Z,28.00
2022-11-27T18:16:29.067Z,27.60
2022-11-27T18:18:58.733Z,27.60
2022-11-27T18:21:28.134Z,27.00
2022-11-27T18:27:07.062Z,26.70
2022-11-27T18:29:39.300Z,25.00
2022-11-27T18:32:08.743Z,26.10
2022-11-27T18:34:37.666Z,25.80
2022-11-27T18:37:06.634Z,25.70
2022-11-27T18:39:36.840Z,25.50
2022-11-27T18:42:06.960Z,26.90
2022-11-27T18:44:44.476Z,26.00
2022-11-27T18:47:15.501Z,28.00
2022-11-27T18:49:55.515Z,27.80
2022-11-27T18:52:25.047Z,28.20
2022-11-27T18:54:53.858Z,29.40
2022-11-27T18:57:22.216Z,29.30
2022-11-27T18:59:50.765Z,29.10
2022-11-27T19:02:19.846Z,26.00
2022-11-27T19:04:49.695Z,31.90
2022-11-27T19:07:19.105Z,31.40
2022-11-27T19:09:47.844Z,30.30
2022-11-27T19:12:16.614Z,28.50
2022-11-27T19:14:45.401Z,34.30
2022-11-27T19:17:14.035Z,34.20
2022-11-27T19:19:57.716Z,37.00
2022-11-27T19:22:27.747Z,34.80
2022-11-27T19:24:58.057Z,34.00
2022-11-27T19:27:27.008Z,32.70
2022-11-27T19:29:55.438Z,35.10
2022-11-27T19:32:24.345Z,34.20
2022-11-27T19:34:53.215Z,36.10
2022-11-27T19:37:34.116Z,38.80
2022-11-27T19:40:07.938Z,36.20
2022-11-27T19:42:37.039Z,37.10
2022-11-27T19:45:07.243Z,35.10
2022-11-27T19:47:36.030Z,33.80
2022-11-27T19:50:07.021Z,33.40
2022-11-27T19:52:36.245Z,30.80
2022-11-27T19:55:07.143Z,31.80
2022-11-27T19:57:37.051Z,30.50
2022-11-27T20:00:08.146Z,32.80
2022-11-27T20:02:42.292Z,31.50
2022-11-27T20:05:11.474Z,31.40
2022-11-27T20:07:40.265Z,30.30
2022-11-27T20:10:10.543Z,30.50
2022-11-27T20:12:39.472Z,31.40
2022-11-27T20:15:13.851Z,31.10
2022-11-27T20:17:43.152Z,29.20
2022-11-27T20:20:13.348Z,29.90
2022-11-27T20:22:42.747Z,30.20
2022-11-27T20:25:19.354Z,32.00
2022-11-27T20:27:50.155Z,34.20
2022-11-27T20:30:19.050Z,31.40
2022-11-27T20:32:47.431Z,32.10
2022-11-27T20:35:16.889Z,31.80
2022-11-27T20:37:45.727Z,33.50
2022-11-27T20:40:14.997Z,33.40
2022-11-27T20:42:43.513Z,34.60
2022-11-27T20:45:16.209Z,32.50
2022-11-27T20:47:47.940Z,36.10
2022-11-27T20:50:16.349Z,36.50
2022-11-27T20:52:45.054Z,39.40
2022-11-27T20:55:14.713Z,36.80
2022-11-27T20:57:43.057Z,39.40
2022-11-27T21:00:13.510Z,35.50
2022-11-27T21:02:42.759Z,35.50
2022-11-27T21:05:11.568Z,35.30
2022-11-27T21:07:41.949Z,34.80
2022-11-27T21:10:13.216Z,36.50
2022-11-27T21:12:42.149Z,35.10
2022-11-27T21:15:13.363Z,34.10
2022-11-27T21:17:41.974Z,34.40
2022-11-27T21:20:12.490Z,32.90
2022-11-27T21:22:43.397Z,33.70
2022-11-27T21:25:11.891Z,34.70
2022-11-27T21:27:40.463Z,33.20
2022-11-27T21:30:10.086Z,31.80
2022-11-27T21:32:38.526Z,32.10
2022-11-27T21:35:08.486Z,32.20
2022-11-27T21:37:37.168Z,32.00
2022-11-27T21:40:09.455Z,32.10
2022-11-27T21:42:43.022Z,33.30
2022-11-27T21:45:12.907Z,34.10
2022-11-27T21:47:41.809Z,30.50
2022-11-27T21:50:12.637Z,32.50
2022-11-27T21:52:40.875Z,32.70
2022-11-27T21:55:12.177Z,33.70
2022-11-27T21:57:40.743Z,33.90
2022-11-27T22:00:10.817Z,33.90
2022-11-27T22:02:40.455Z,33.90
2022-11-27T22:05:10.188Z,33.60
2022-11-27T22:07:38.809Z,32.40
2022-11-27T22:10:10.324Z,32.40
2022-11-27T22:12:40.177Z,34.50
2022-11-27T22:15:10.032Z,32.70
2022-11-27T22:17:38.507Z,32.20
2022-11-27T22:20:10.354Z,32.30
2022-11-27T22:22:39.092Z,34.40
2022-11-27T22:25:10.244Z,31.50
2022-11-27T22:27:38.701Z,33.00
2022-11-27T22:30:11.079Z,32.60
2022-11-27T22:32:39.661Z,33.10
2022-11-27T22:35:09.724Z,34.90
2022-11-27T22:37:38.514Z,33.70
2022-11-27T22:40:09.482Z,32.10
2022-11-27T22:42:38.466Z,32.30
2022-11-27T22:45:10.081Z,33.20
2022-11-27T22:47:38.439Z,32.80
2022-11-27T22:50:08.732Z,33.00
2022-11-27T22:52:37.520Z,32.40
2022-11-27T22:55:14.606Z,33.00
2022-11-27T22:57:43.374Z,36.10
2022-11-27T23:00:13.955Z,34.70
2022-11-27T23:02:44.362Z,35.70
2022-11-27T23:05:13.255Z,32.40
2022-11-27T23:07:41.811Z,35.90
2022-11-27T23:10:11.853Z,34.00
2022-11-27T23:12:40.646Z,34.60
2022-11-27T23:15:12.188Z,33.40
2022-11-27T23:17:40.729Z,34.40
2022-11-27T23:20:15.008Z,36.10
2022-11-27T23:22:43.854Z,35.80
2022-11-27T23:25:12.603Z,34.30
2022-11-27T23:27:41.711Z,33.70
2022-11-27T23:30:12.172Z,33.90
2022-11-27T23:32:40.776Z,34.70
2022-11-27T23:35:10.576Z,34.60
2022-11-27T23:37:38.928Z,34.20
2022-11-27T23:40:09.222Z,32.90
2022-11-27T23:42:37.838Z,33.50
2022-11-27T23:45:08.350Z,32.80
2022-11-27T23:47:36.607Z,34.20
2022-11-27T23:50:07.213Z,33.00
2022-11-27T23:52:38.146Z,31.20
2022-11-27T23:55:07.766Z,32.60
2022-11-27T23:57:36.821Z,32.30
